createdAt,value
2022-10-05T00:04:31.899Z,0
2022-10-05T00:09:44.791Z,0
2022-10-05T00:14:57.349Z,0
2022-10-05T00:20:09.784Z,0
2022-10-05T00:25:22.121Z,0
2022-10-05T00:30:34.487Z,0
2022-10-05T00:35:46.831Z,0
2022-10-05T00:40:59.346Z,0
2022-10-05T00:46:11.463Z,0
2022-10-05T00:51:23.899Z,0
2022-10-05T00:56:36.250Z,0
2022-10-05T01:01:48.645Z,0
2022-10-05T01:07:00.991Z,0
2022-10-05T01:12:13.429Z,0
2022-10-05T01:17:25.515Z,0
2022-10-05T01:22:38.053Z,0
2022-10-05T01:27:50.505Z,0
2022-10-05T01:33:03.178Z,0
2022-10-05T01:38:15.337Z,0
2022-10-05T01:43:27.619Z,0
2022-10-05T01:48:40.040Z,0
2022-10-05T01:53:52.852Z,0
2022-10-05T01:59:05.308Z,0
2022-10-05T02:04:37.191Z,0
2022-10-05T02:09:30.058Z,0
2022-10-05T02:14:42.211Z,0
2022-10-05T02:19:54.475Z,0
2022-10-05T02:25:07.213Z,0
2022-10-05T02:30:19.526Z,0
2022-10-05T02:35:31.744Z,0
2022-10-05T02:40:44.121Z,0
2022-10-05T02:45:56.531Z,0
2022-10-05T02:51:08.677Z,0
2022-10-05T02:56:21.402Z,0
2022-10-05T03:01:33.891Z,0
2022-10-05T03:06:46.616Z,0
2022-10-05T03:11:59.353Z,0
2022-10-05T03:17:11.678Z,0
2022-10-05T03:22:24.168Z,0
2022-10-05T03:27:36.421Z,0
2022-10-05T03:32:48.931Z,0
2022-10-05T03:38:01.229Z,0
2022-10-05T03:43:13.549Z,0
2022-10-05T03:48:25.729Z,0
2022-10-05T03:53:38.131Z,0
2022-10-05T03:58:50.518Z,0
2022-10-05T04:04:02.637Z,0
2022-10-05T04:09:15.271Z,0
2022-10-05T04:14:27.597Z,0
2022-10-05T04:19:40.009Z,0
2022-10-05T04:24:52.046Z,0
2022-10-05T04:30:04.369Z,0
2022-10-05T04:35:16.745Z,0
2022-10-05T04:40:29.092Z,0
2022-10-05T04:45:41.308Z,0
2022-10-05T04:50:53.562Z,0
2022-10-05T04:56:05.893Z,0
2022-10-05T05:01:18.395Z,82
2022-10-05T05:06:30.514Z,487
2022-10-05T05:11:42.816Z,977
2022-10-05T05:16:55.867Z,1796
2022-10-05T05:22:08.528Z,2923
2022-10-05T05:27:20.611Z,3783
2022-10-05T05:32:33.161Z,4487
2022-10-05T05:37:45.687Z,5108
2022-10-05T05:42:57.893Z,5165
2022-10-05T05:48:10.295Z,5140
2022-10-05T05:53:22.769Z,5117
2022-10-05T05:58:35.166Z,5163
2022-10-05T06:03:47.613Z,5163
2022-10-05T06:09:00.053Z,5135
2022-10-05T06:14:12.339Z,5165
2022-10-05T06:19:24.883Z,5170
2022-10-05T06:24:37.233Z,5163
2022-10-05T06:29:49.525Z,5108
2022-10-05T06:35:02.031Z,5110
2022-10-05T06:40:14.877Z,5140
2022-10-05T06:45:27.038Z,5172
2022-10-05T06:50:39.416Z,5103
2022-10-05T06:55:51.685Z,5133
2022-10-05T07:01:03.924Z,5172
2022-10-05T07:06:16.090Z,5101
2022-10-05T07:11:28.625Z,5145
2022-10-05T07:16:41.007Z,5147
2022-10-05T07:21:53.356Z,5172
2022-10-05T07:27:05.644Z,5103
2022-10-05T07:32:18.140Z,5145
2022-10-05T07:37:30.577Z,5119
2022-10-05T07:42:49.079Z,5175
2022-10-05T07:47:55.598Z,5112
2022-10-05T07:53:07.929Z,5177
2022-10-05T07:58:20.266Z,5080
2022-10-05T08:03:32.675Z,5154
2022-10-05T08:08:45.128Z,5181
2022-10-05T08:13:57.344Z,5129
2022-10-05T08:19:09.740Z,5161
2022-10-05T08:24:22.088Z,5138
2022-10-05T08:29:34.897Z,5186
2022-10-05T08:34:46.906Z,5186
2022-10-05T08:39:59.229Z,5138
2022-10-05T08:45:11.712Z,5163
2022-10-05T08:50:24.003Z,5032
2022-10-05T08:55:36.317Z,5078
2022-10-05T09:00:49.068Z,5170
2022-10-05T09:06:01.280Z,5085
2022-10-05T09:11:13.740Z,5156
2022-10-05T09:16:26.101Z,5191
2022-10-05T09:21:38.790Z,5115
2022-10-05T09:26:51.000Z,5161
2022-10-05T09:32:03.300Z,5083
2022-10-05T09:37:15.836Z,5122
2022-10-05T09:42:28.359Z,5193
2022-10-05T09:47:40.705Z,5193
2022-10-05T09:52:53.012Z,5133
2022-10-05T10:03:17.930Z,5186
2022-10-05T10:08:30.090Z,5172
2022-10-05T10:13:42.496Z,5188
2022-10-05T10:18:55.177Z,5184
2022-10-05T10:24:07.655Z,5202
2022-10-05T10:29:19.847Z,5195
2022-10-05T10:34:32.258Z,5209
2022-10-05T10:39:44.618Z,5147
2022-10-05T10:44:57.047Z,5188
2022-10-05T10:50:09.605Z,5175
2022-10-05T10:55:22.423Z,5202
2022-10-05T11:00:34.718Z,5209
2022-10-05T11:05:48.659Z,5211
2022-10-05T11:10:59.541Z,5211
2022-10-05T11:16:14.561Z,5221
2022-10-05T11:21:24.678Z,5225
2022-10-05T11:26:36.869Z,5193
2022-10-05T11:31:49.345Z,5223
2022-10-05T11:37:01.621Z,5188
2022-10-05T11:42:14.070Z,5223
2022-10-05T11:47:26.129Z,5198
2022-10-05T11:52:38.334Z,5225
2022-10-05T11:57:50.811Z,5211
2022-10-05T12:03:03.343Z,5214
2022-10-05T12:08:15.915Z,5218
2022-10-05T12:13:28.192Z,5195
2022-10-05T12:18:40.624Z,5225
2022-10-05T12:23:53.343Z,5232
2022-10-05T12:29:05.752Z,5241
2022-10-05T12:34:18.325Z,5239
2022-10-05T12:39:30.943Z,5255
2022-10-05T12:49:55.641Z,5241
2022-10-05T12:55:08.109Z,5246
2022-10-05T13:00:23.097Z,5248
2022-10-05T13:05:33.116Z,5262
2022-10-05T13:10:45.724Z,5239
2022-10-05T13:15:58.157Z,5248
2022-10-05T13:21:10.285Z,5225
2022-10-05T13:26:22.860Z,5244
2022-10-05T13:31:35.291Z,5237
2022-10-05T13:36:47.379Z,5253
2022-10-05T13:41:59.862Z,5248
2022-10-05T13:47:12.451Z,5264
2022-10-05T13:52:24.683Z,5248
2022-10-05T13:57:37.049Z,5260
2022-10-05T14:02:49.404Z,5193
2022-10-05T14:08:01.969Z,5193
2022-10-05T14:13:14.521Z,5264
2022-10-05T14:18:26.873Z,5267
2022-10-05T14:23:39.132Z,5269
2022-10-05T14:28:51.273Z,5271
2022-10-05T14:34:03.652Z,5269
2022-10-05T14:39:16.060Z,5276
2022-10-05T14:44:28.699Z,5250
2022-10-05T14:49:41.049Z,5280
2022-10-05T14:54:53.199Z,5257
2022-10-05T15:00:05.447Z,5253
2022-10-05T15:05:17.925Z,5257
2022-10-05T15:10:30.459Z,5267
2022-10-05T15:15:42.720Z,5244
2022-10-05T15:20:55.117Z,5239
2022-10-05T15:26:07.737Z,5264
2022-10-05T15:36:32.441Z,5269
2022-10-05T15:41:44.638Z,5227
2022-10-05T15:46:58.539Z,5253
2022-10-05T15:52:10.783Z,5232
2022-10-05T15:57:22.994Z,5241
2022-10-05T16:02:35.026Z,5221
2022-10-05T16:07:47.533Z,5246
2022-10-05T16:12:59.845Z,5225
2022-10-05T16:18:12.055Z,5218
2022-10-05T16:23:24.311Z,5255
2022-10-05T16:28:36.476Z,5237
2022-10-05T16:33:48.355Z,4496
2022-10-05T16:39:00.323Z,3769
2022-10-05T16:44:12.564Z,2953
2022-10-05T16:49:24.810Z,2063
2022-10-05T16:54:36.905Z,1260
2022-10-05T16:59:49.024Z,552
2022-10-05T17:05:01.268Z,20
2022-10-05T17:10:13.689Z,0
2022-10-05T17:15:26.052Z,0
2022-10-05T17:20:42.360Z,0
2022-10-05T17:25:51.063Z,0
2022-10-05T17:31:03.383Z,0
2022-10-05T17:36:15.836Z,0
2022-10-05T17:41:28.248Z,0
2022-10-05T17:46:40.407Z,0
2022-10-05T17:51:52.851Z,0
2022-10-05T17:57:05.369Z,0
2022-10-05T18:02:18.052Z,0
2022-10-05T18:07:30.291Z,0
2022-10-05T18:17:55.913Z,0
2022-10-05T18:23:08.170Z,0
2022-10-05T18:28:20.744Z,0
2022-10-05T18:33:32.904Z,0
2022-10-05T18:38:45.250Z,0
2022-10-05T18:43:57.331Z,0
2022-10-05T18:49:09.562Z,0
2022-10-05T18:54:21.982Z,0
2022-10-05T18:59:34.096Z,0
2022-10-05T19:04:46.646Z,0
2022-10-05T19:09:59.089Z,0
2022-10-05T19:15:11.131Z,0
2022-10-05T19:20:23.695Z,0
2022-10-05T19:25:35.843Z,0
2022-10-05T19:30:47.979Z,0
2022-10-05T19:36:00.153Z,0
2022-10-05T19:41:12.410Z,0
2022-10-05T19:46:24.702Z,0
2022-10-05T19:51:36.813Z,0
2022-10-05T19:56:49.276Z,0
2022-10-05T20:02:01.825Z,0
2022-10-05T20:07:14.010Z,0
2022-10-05T20:12:26.626Z,0
2022-10-05T20:17:39.149Z,0
2022-10-05T20:22:51.430Z,0
2022-10-05T20:28:03.797Z,0
2022-10-05T20:33:16.286Z,0
2022-10-05T20:38:28.697Z,0
2022-10-05T20:43:40.764Z,0
2022-10-05T20:48:53.093Z,0
2022-10-05T20:54:05.285Z,0
2022-10-05T21:04:32.778Z,0
2022-10-05T21:09:42.388Z,0
2022-10-05T21:14:54.839Z,0
2022-10-05T21:20:07.268Z,0
2022-10-05T21:25:19.672Z,0
2022-10-05T21:30:31.977Z,0
2022-10-05T21:35:44.303Z,0
2022-10-05T21:40:56.746Z,0
2022-10-05T21:46:09.163Z,0
2022-10-05T21:51:21.373Z,0
2022-10-05T21:56:33.570Z,0
2022-10-05T22:01:45.967Z,0
2022-10-05T22:06:58.197Z,0
2022-10-05T22:12:10.562Z,0
2022-10-05T22:17:22.969Z,0
2022-10-05T22:22:35.536Z,0
2022-10-05T22:27:47.858Z,0
2022-10-05T22:33:00.061Z,0
2022-10-05T22:38:12.192Z,0
2022-10-05T22:43:24.622Z,0
2022-10-05T22:48:37.087Z,0
2022-10-05T22:53:49.506Z,0
2022-10-05T22:59:01.906Z,0
2022-10-05T23:04:14.171Z,0
2022-10-05T23:09:26.545Z,0
2022-10-05T23:14:39.077Z,0
2022-10-05T23:19:51.440Z,0
2022-10-05T23:25:04.015Z,0
2022-10-05T23:30:16.251Z,0
2022-10-05T23:35:28.393Z,0
2022-10-05T23:40:40.956Z,0
2022-10-05T23:45:53.432Z,0
2022-10-05T23:51:05.502Z,0
2022-10-05T23:56:17.802Z,0
